sensor_id;sensor_type;location;lat;lon;timestamp;pressure;altitude;pressure_sealevel;temperature;humidity
65832;BME280;52593;42.648;23.332;2023-01-10T00:01:30;93776.22;;;2.56;91.38
65832;BME280;52593;42.648;23.332;2023-01-10T00:03:55;93766.66;;;2.55;91.40
65832;BME280;52593;42.648;23.332;2023-01-10T00:06:21;93762.97;;;2.47;90.91
65832;BME280;52593;42.648;23.332;2023-01-10T00:08:46;93743.69;;;2.55;90.73
65832;BME280;52593;42.648;23.332;2023-01-10T00:11:12;93784.34;;;2.36;91.13
65832;BME280;52593;42.648;23.332;2023-01-10T00:13:56;93766.72;;;2.45;91.19
65832;BME280;52593;42.648;23.332;2023-01-10T00:16:22;93780.06;;;2.43;90.90
65832;BME280;52593;42.648;23.332;2023-01-10T00:18:47;93755.66;;;2.41;91.25
65832;BME280;52593;42.648;23.332;2023-01-10T00:21:13;93754.81;;;2.41;90.70
65832;BME280;52593;42.648;23.332;2023-01-10T00:23:39;93777.53;;;2.34;91.09
65832;BME280;52593;42.648;23.332;2023-01-10T00:26:05;93773.06;;;2.34;91.86
65832;BME280;52593;42.648;23.332;2023-01-10T00:28:31;93804.19;;;2.22;92.15
65832;BME280;52593;42.648;23.332;2023-01-10T00:30:59;93770.81;;;2.39;92.42
65832;BME280;52593;42.648;23.332;2023-01-10T00:33:29;93754.75;;;2.32;92.14
65832;BME280;52593;42.648;23.332;2023-01-10T00:36:08;93771.28;;;2.35;92.25
65832;BME280;52593;42.648;23.332;2023-01-10T00:38:34;93726.66;;;2.49;91.38
65832;BME280;52593;42.648;23.332;2023-01-10T00:41:02;93747.53;;;2.17;91.67
65832;BME280;52593;42.648;23.332;2023-01-10T00:43:27;93737.50;;;2.20;93.02
65832;BME280;52593;42.648;23.332;2023-01-10T00:46:11;93735.00;;;2.19;92.22
65832;BME280;52593;42.648;23.332;2023-01-10T00:48:37;93733.44;;;2.08;93.08
65832;BME280;52593;42.648;23.332;2023-01-10T00:51:03;93741.94;;;2.20;93.41
65832;BME280;52593;42.648;23.332;2023-01-10T00:53:29;93742.75;;;2.38;92.56
65832;BME280;52593;42.648;23.332;2023-01-10T00:55:55;93753.09;;;2.31;91.93
65832;BME280;52593;42.648;23.332;2023-01-10T00:58:20;93723.38;;;2.56;91.34
65832;BME280;52593;42.648;23.332;2023-01-10T01:00:46;93722.06;;;2.52;90.92
65832;BME280;52593;42.648;23.332;2023-01-10T01:03:17;93717.75;;;2.50;91.18
65832;BME280;52593;42.648;23.332;2023-01-10T01:05:44;93700.78;;;2.53;90.59
65832;BME280;52593;42.648;23.332;2023-01-10T01:08:11;93718.38;;;2.44;91.16
65832;BME280;52593;42.648;23.332;2023-01-10T01:10:37;93729.19;;;2.33;90.95
65832;BME280;52593;42.648;23.332;2023-01-10T01:13:11;93736.16;;;2.16;92.42
65832;BME280;52593;42.648;23.332;2023-01-10T01:15:37;93710.06;;;2.13;93.41
65832;BME280;52593;42.648;23.332;2023-01-10T01:18:04;93723.13;;;2.14;93.21
65832;BME280;52593;42.648;23.332;2023-01-10T01:20:30;93706.97;;;2.18;93.87
65832;BME280;52593;42.648;23.332;2023-01-10T01:22:55;93712.25;;;2.18;93.29
65832;BME280;52593;42.648;23.332;2023-01-10T01:25:21;93709.63;;;2.18;93.35
65832;BME280;52593;42.648;23.332;2023-01-10T01:27:46;93692.69;;;2.28;91.89
65832;BME280;52593;42.648;23.332;2023-01-10T01:30:12;93729.81;;;2.27;92.08
65832;BME280;52593;42.648;23.332;2023-01-10T01:32:37;93739.75;;;2.33;91.55
65832;BME280;52593;42.648;23.332;2023-01-10T01:35:04;93753.53;;;2.45;91.74
65832;BME280;52593;42.648;23.332;2023-01-10T01:37:29;93686.09;;;2.59;90.12
65832;BME280;52593;42.648;23.332;2023-01-10T01:39:55;93720.88;;;2.28;91.30
65832;BME280;52593;42.648;23.332;2023-01-10T01:47:45;93692.16;;;2.51;91.04
65832;BME280;52593;42.648;23.332;2023-01-10T01:50:23;93710.28;;;2.46;90.66
65832;BME280;52593;42.648;23.332;2023-01-10T01:52:52;93696.97;;;2.56;89.59
65832;BME280;52593;42.648;23.332;2023-01-10T01:55:19;93698.50;;;2.58;89.68
65832;BME280;52593;42.648;23.332;2023-01-10T01:57:46;93707.47;;;2.65;88.60
65832;BME280;52593;42.648;23.332;2023-01-10T02:00:13;93687.16;;;2.66;88.70
65832;BME280;52593;42.648;23.332;2023-01-10T02:02:47;93678.81;;;2.53;89.06
65832;BME280;52593;42.648;23.332;2023-01-10T02:05:15;93675.50;;;2.50;89.08
65832;BME280;52593;42.648;23.332;2023-01-10T02:07:44;93667.78;;;2.57;89.13
65832;BME280;52593;42.648;23.332;2023-01-10T02:10:24;93660.31;;;2.53;88.59
65832;BME280;52593;42.648;23.332;2023-01-10T02:12:54;93653.13;;;2.63;87.68
65832;BME280;52593;42.648;23.332;2023-01-10T02:15:20;93647.34;;;2.59;87.59
65832;BME280;52593;42.648;23.332;2023-01-10T02:17:48;93629.19;;;2.64;87.74
65832;BME280;52593;42.648;23.332;2023-01-10T02:20:17;93645.81;;;2.57;87.84
65832;BME280;52593;42.648;23.332;2023-01-10T02:34:03;93631.81;;;2.56;90.15
65832;BME280;52593;42.648;23.332;2023-01-10T02:39:55;93644.19;;;2.29;92.53
65832;BME280;52593;42.648;23.332;2023-01-10T02:42:46;93647.13;;;2.26;93.11
65832;BME280;52593;42.648;23.332;2023-01-10T02:45:45;93634.50;;;2.38;92.23
65832;BME280;52593;42.648;23.332;2023-01-10T02:48:12;93648.44;;;2.48;90.88
65832;BME280;52593;42.648;23.332;2023-01-10T02:53:28;93627.84;;;2.60;90.11
65832;BME280;52593;42.648;23.332;2023-01-10T03:02:19;93658.81;;;2.76;88.61
65832;BME280;52593;42.648;23.332;2023-01-10T03:12:31;93665.03;;;2.67;89.75
65832;BME280;52593;42.648;23.332;2023-01-10T03:15:02;93669.28;;;2.60;89.71
65832;BME280;52593;42.648;23.332;2023-01-10T03:17:29;93679.91;;;2.42;89.70
65832;BME280;52593;42.648;23.332;2023-01-10T03:20:02;93663.50;;;2.56;90.23
65832;BME280;52593;42.648;23.332;2023-01-10T03:22:30;93653.56;;;2.50;90.45
65832;BME280;52593;42.648;23.332;2023-01-10T03:24:58;93670.16;;;2.68;89.90
65832;BME280;52593;42.648;23.332;2023-01-10T03:32:41;93673.91;;;2.58;89.90
65832;BME280;52593;42.648;23.332;2023-01-10T03:35:08;93672.19;;;2.48;90.40
65832;BME280;52593;42.648;23.332;2023-01-10T03:40:31;93672.25;;;2.57;91.61
65832;BME280;52593;42.648;23.332;2023-01-10T03:43:09;93677.53;;;2.57;91.58
65832;BME280;52593;42.648;23.332;2023-01-10T03:46:08;93678.91;;;2.43;90.90
65832;BME280;52593;42.648;23.332;2023-01-10T03:48:38;93665.72;;;2.43;91.93
65832;BME280;52593;42.648;23.332;2023-01-10T03:51:06;93661.69;;;2.57;90.95
65832;BME280;52593;42.648;23.332;2023-01-10T03:53:33;93672.72;;;2.52;91.14
65832;BME280;52593;42.648;23.332;2023-01-10T03:56:01;93654.53;;;2.49;91.31
65832;BME280;52593;42.648;23.332;2023-01-10T03:58:28;93649.09;;;2.50;91.29
65832;BME280;52593;42.648;23.332;2023-01-10T04:00:54;93644.56;;;2.35;92.09
65832;BME280;52593;42.648;23.332;2023-01-10T04:03:19;93621.81;;;2.42;92.54
65832;BME280;52593;42.648;23.332;2023-01-10T04:05:45;93602.84;;;2.46;92.00
65832;BME280;52593;42.648;23.332;2023-01-10T04:08:10;93603.00;;;2.45;92.33
65832;BME280;52593;42.648;23.332;2023-01-10T04:10:35;93587.53;;;2.50;92.46
65832;BME280;52593;42.648;23.332;2023-01-10T04:13:02;93583.41;;;2.56;91.88
65832;BME280;52593;42.648;23.332;2023-01-10T04:15:29;93590.72;;;2.62;91.87
65832;BME280;52593;42.648;23.332;2023-01-10T04:17:54;93593.50;;;2.60;91.57
65832;BME280;52593;42.648;23.332;2023-01-10T04:20:21;93603.16;;;2.43;91.68
65832;BME280;52593;42.648;23.332;2023-01-10T04:22:46;93601.09;;;2.55;92.28
65832;BME280;52593;42.648;23.332;2023-01-10T04:25:14;93623.72;;;2.58;91.10
65832;BME280;52593;42.648;23.332;2023-01-10T04:27:40;93647.50;;;2.58;91.06
65832;BME280;52593;42.648;23.332;2023-01-10T04:30:06;93645.31;;;2.53;91.21
65832;BME280;52593;42.648;23.332;2023-01-10T04:32:31;93653.59;;;2.58;90.73
65832;BME280;52593;42.648;23.332;2023-01-10T04:34:57;93656.63;;;2.72;90.80
65832;BME280;52593;42.648;23.332;2023-01-10T04:37:22;93634.31;;;2.66;89.70
65832;BME280;52593;42.648;23.332;2023-01-10T04:39:47;93686.94;;;2.59;90.71
65832;BME280;52593;42.648;23.332;2023-01-10T04:42:13;93684.78;;;2.55;90.73
65832;BME280;52593;42.648;23.332;2023-01-10T04:44:40;93673.44;;;2.62;91.04
65832;BME280;52593;42.648;23.332;2023-01-10T04:47:05;93685.19;;;2.68;90.26
65832;BME280;52593;42.648;23.332;2023-01-10T04:49:30;93658.50;;;2.79;89.98
65832;BME280;52593;42.648;23.332;2023-01-10T04:51:56;93645.44;;;2.78;90.13
65832;BME280;52593;42.648;23.332;2023-01-10T04:54:21;93643.63;;;2.78;89.94
65832;BME280;52593;42.648;23.332;2023-01-10T04:56:47;93654.47;;;2.67;89.94
65832;BME280;52593;42.648;23.332;2023-01-10T04:59:13;93650.53;;;2.71;90.28
65832;BME280;52593;42.648;23.332;2023-01-10T05:01:38;93663.06;;;2.69;89.72
65832;BME280;52593;42.648;23.332;2023-01-10T05:04:05;93651.16;;;2.65;90.28
65832;BME280;52593;42.648;23.332;2023-01-10T05:06:31;93641.22;;;2.59;90.51
65832;BME280;52593;42.648;23.332;2023-01-10T05:08:57;93634.13;;;2.59;90.70
65832;BME280;52593;42.648;23.332;2023-01-10T05:11:22;93624.44;;;2.68;90.74
65832;BME280;52593;42.648;23.332;2023-01-10T05:13:48;93617.50;;;2.75;90.50
65832;BME280;52593;42.648;23.332;2023-01-10T05:16:14;93603.50;;;2.75;89.66
65832;BME280;52593;42.648;23.332;2023-01-10T05:18:40;93593.41;;;2.78;89.49
65832;BME280;52593;42.648;23.332;2023-01-10T05:21:08;93594.28;;;2.79;89.36
65832;BME280;52593;42.648;23.332;2023-01-10T05:23:35;93600.53;;;2.78;89.04
65832;BME280;52593;42.648;23.332;2023-01-10T05:26:15;93622.47;;;2.70;89.49
65832;BME280;52593;42.648;23.332;2023-01-10T05:28:41;93605.31;;;2.74;89.82
65832;BME280;52593;42.648;23.332;2023-01-10T05:31:08;93611.22;;;2.68;89.18
65832;BME280;52593;42.648;23.332;2023-01-10T05:33:35;93621.16;;;2.74;89.26
65832;BME280;52593;42.648;23.332;2023-01-10T05:36:04;93623.91;;;2.64;89.63
65832;BME280;52593;42.648;23.332;2023-01-10T05:38:31;93628.06;;;2.67;90.25
65832;BME280;52593;42.648;23.332;2023-01-10T05:40:58;93643.47;;;2.80;90.08
65832;BME280;52593;42.648;23.332;2023-01-10T05:43:24;93640.22;;;2.94;89.58
65832;BME280;52593;42.648;23.332;2023-01-10T05:45:50;93642.00;;;2.85;89.13
65832;BME280;52593;42.648;23.332;2023-01-10T05:48:16;93628.47;;;2.89;88.73
65832;BME280;52593;42.648;23.332;2023-01-10T05:50:41;93630.66;;;3.01;88.29
65832;BME280;52593;42.648;23.332;2023-01-10T05:53:07;93630.97;;;2.98;88.63
65832;BME280;52593;42.648;23.332;2023-01-10T05:55:33;93618.78;;;3.14;87.74
65832;BME280;52593;42.648;23.332;2023-01-10T05:57:58;93625.03;;;3.04;87.89
65832;BME280;52593;42.648;23.332;2023-01-10T06:00:24;93632.97;;;2.96;88.46
65832;BME280;52593;42.648;23.332;2023-01-10T06:02:49;93620.31;;;3.16;88.41
65832;BME280;52593;42.648;23.332;2023-01-10T06:05:15;93626.41;;;3.17;87.69
65832;BME280;52593;42.648;23.332;2023-01-10T06:07:40;93645.22;;;3.14;88.12
65832;BME280;52593;42.648;23.332;2023-01-10T06:10:06;93641.13;;;3.11;88.07
65832;BME280;52593;42.648;23.332;2023-01-10T06:12:31;93632.22;;;3.20;88.12
65832;BME280;52593;42.648;23.332;2023-01-10T06:14:57;93639.66;;;3.33;87.95
65832;BME280;52593;42.648;23.332;2023-01-10T06:17:22;93637.34;;;3.30;87.53
65832;BME280;52593;42.648;23.332;2023-01-10T06:19:48;93620.84;;;3.28;87.58
65832;BME280;52593;42.648;23.332;2023-01-10T06:22:13;93628.72;;;3.20;87.97
65832;BME280;52593;42.648;23.332;2023-01-10T06:24:38;93634.34;;;3.17;88.21
65832;BME280;52593;42.648;23.332;2023-01-10T06:27:04;93636.84;;;3.27;88.22
65832;BME280;52593;42.648;23.332;2023-01-10T06:29:30;93627.25;;;3.26;87.89
65832;BME280;52593;42.648;23.332;2023-01-10T06:31:55;93628.59;;;3.30;87.67
65832;BME280;52593;42.648;23.332;2023-01-10T06:34:21;93628.59;;;3.30;87.66
65832;BME280;52593;42.648;23.332;2023-01-10T06:36:46;93629.63;;;3.37;87.33
65832;BME280;52593;42.648;23.332;2023-01-10T06:39:11;93636.22;;;3.41;87.34
65832;BME280;52593;42.648;23.332;2023-01-10T06:41:37;93621.69;;;3.45;87.75
65832;BME280;52593;42.648;23.332;2023-01-10T06:44:02;93631.63;;;3.51;88.65
65832;BME280;52593;42.648;23.332;2023-01-10T06:46:27;93622.00;;;3.50;88.80
65832;BME280;52593;42.648;23.332;2023-01-10T06:48:53;93625.19;;;3.54;89.24
65832;BME280;52593;42.648;23.332;2023-01-10T06:51:18;93634.44;;;3.66;89.34
65832;BME280;52593;42.648;23.332;2023-01-10T06:53:44;93639.72;;;3.50;89.72
65832;BME280;52593;42.648;23.332;2023-01-10T06:56:09;93635.44;;;3.57;90.72
65832;BME280;52593;42.648;23.332;2023-01-10T06:58:35;93630.31;;;3.64;91.11
65832;BME280;52593;42.648;23.332;2023-01-10T07:01:08;93627.50;;;3.65;91.17
65832;BME280;52593;42.648;23.332;2023-01-10T07:03:36;93618.06;;;3.63;92.07
65832;BME280;52593;42.648;23.332;2023-01-10T07:06:02;93604.84;;;3.71;91.67
65832;BME280;52593;42.648;23.332;2023-01-10T07:08:28;93609.97;;;3.64;91.45
65832;BME280;52593;42.648;23.332;2023-01-10T07:10:56;93614.44;;;3.64;92.88
65832;BME280;52593;42.648;23.332;2023-01-10T07:13:22;93601.53;;;3.69;92.84
65832;BME280;52593;42.648;23.332;2023-01-10T07:15:47;93606.16;;;3.59;93.47
65832;BME280;52593;42.648;23.332;2023-01-10T07:18:12;93609.97;;;3.72;93.57
65832;BME280;52593;42.648;23.332;2023-01-10T07:20:38;93599.22;;;3.74;94.52
65832;BME280;52593;42.648;23.332;2023-01-10T07:23:04;93594.75;;;3.74;94.75
65832;BME280;52593;42.648;23.332;2023-01-10T07:25:29;93603.34;;;3.77;94.88
65832;BME280;52593;42.648;23.332;2023-01-10T07:27:54;93593.44;;;3.79;94.37
65832;BME280;52593;42.648;23.332;2023-01-10T07:30:20;93594.91;;;3.73;95.11
65832;BME280;52593;42.648;23.332;2023-01-10T07:32:52;93587.16;;;3.63;95.69
65832;BME280;52593;42.648;23.332;2023-01-10T07:35:18;93572.91;;;3.64;95.27
65832;BME280;52593;42.648;23.332;2023-01-10T07:37:43;93581.69;;;3.65;94.80
65832;BME280;52593;42.648;23.332;2023-01-10T07:40:09;93578.69;;;3.60;95.21
65832;BME280;52593;42.648;23.332;2023-01-10T07:42:35;93573.94;;;3.63;95.37
65832;BME280;52593;42.648;23.332;2023-01-10T07:45:00;93578.38;;;3.63;95.02
65832;BME280;52593;42.648;23.332;2023-01-10T07:47:26;93569.31;;;3.57;96.05
65832;BME280;52593;42.648;23.332;2023-01-10T07:49:52;93565.00;;;3.56;96.49
65832;BME280;52593;42.648;23.332;2023-01-10T07:52:18;93566.66;;;3.57;96.63
65832;BME280;52593;42.648;23.332;2023-01-10T07:54:43;93570.44;;;3.54;96.79
65832;BME280;52593;42.648;23.332;2023-01-10T07:57:08;93565.16;;;3.63;97.46
65832;BME280;52593;42.648;23.332;2023-01-10T07:59:34;93563.34;;;3.63;97.76
65832;BME280;52593;42.648;23.332;2023-01-10T08:01:59;93572.09;;;3.64;98.06
65832;BME280;52593;42.648;23.332;2023-01-10T08:04:24;93574.25;;;3.68;97.70
65832;BME280;52593;42.648;23.332;2023-01-10T08:06:53;93580.69;;;3.66;98.48
65832;BME280;52593;42.648;23.332;2023-01-10T08:09:18;93579.88;;;3.73;98.45
65832;BME280;52593;42.648;23.332;2023-01-10T08:11:43;93576.06;;;3.76;98.16
65832;BME280;52593;42.648;23.332;2023-01-10T08:14:09;93573.59;;;3.74;98.14
65832;BME280;52593;42.648;23.332;2023-01-10T08:16:34;93572.75;;;3.90;97.86
65832;BME280;52593;42.648;23.332;2023-01-10T08:19:00;93564.97;;;3.89;97.73
65832;BME280;52593;42.648;23.332;2023-01-10T08:21:25;93563.31;;;3.96;97.26
65832;BME280;52593;42.648;23.332;2023-01-10T08:23:50;93558.34;;;3.93;96.91
65832;BME280;52593;42.648;23.332;2023-01-10T08:26:17;93561.50;;;3.97;96.83
65832;BME280;52593;42.648;23.332;2023-01-10T08:28:42;93542.66;;;4.00;97.22
65832;BME280;52593;42.648;23.332;2023-01-10T08:31:08;93531.72;;;4.03;97.08
65832;BME280;52593;42.648;23.332;2023-01-10T08:33:37;93543.09;;;4.11;96.90
65832;BME280;52593;42.648;23.332;2023-01-10T08:36:02;93538.31;;;4.07;97.07
65832;BME280;52593;42.648;23.332;2023-01-10T08:38:28;93540.78;;;4.08;97.60
65832;BME280;52593;42.648;23.332;2023-01-10T08:40:55;93541.28;;;4.12;97.73
65832;BME280;52593;42.648;23.332;2023-01-10T08:43:21;93532.00;;;4.16;97.57
65832;BME280;52593;42.648;23.332;2023-01-10T08:45:47;93530.34;;;4.23;96.98
65832;BME280;52593;42.648;23.332;2023-01-10T08:48:13;93529.34;;;4.24;97.22
65832;BME280;52593;42.648;23.332;2023-01-10T08:50:39;93530.63;;;4.37;96.85
65832;BME280;52593;42.648;23.332;2023-01-10T08:53:05;93524.34;;;4.29;96.01
65832;BME280;52593;42.648;23.332;2023-01-10T08:55:30;93525.34;;;4.37;96.08
65832;BME280;52593;42.648;23.332;2023-01-10T08:57:58;93518.03;;;4.39;95.88
65832;BME280;52593;42.648;23.332;2023-01-10T09:00:25;93525.69;;;4.34;96.35
65832;BME280;52593;42.648;23.332;2023-01-10T09:02:50;93536.94;;;4.27;96.53
65832;BME280;52593;42.648;23.332;2023-01-10T09:05:16;93528.50;;;4.24;96.31
65832;BME280;52593;42.648;23.332;2023-01-10T09:07:41;93529.00;;;4.19;96.40
65832;BME280;52593;42.648;23.332;2023-01-10T09:10:07;93518.75;;;4.16;97.36
65832;BME280;52593;42.648;23.332;2023-01-10T09:12:33;93512.63;;;4.24;98.15
65832;BME280;52593;42.648;23.332;2023-01-10T09:15:17;93524.91;;;4.17;96.56
65832;BME280;52593;42.648;23.332;2023-01-10T09:17:43;93532.41;;;3.97;98.36
65832;BME280;52593;42.648;23.332;2023-01-10T09:20:09;93528.41;;;3.84;99.71
65832;BME280;52593;42.648;23.332;2023-01-10T09:22:38;93514.56;;;3.74;100.00
65832;BME280;52593;42.648;23.332;2023-01-10T09:25:04;93516.19;;;3.75;100.00
65832;BME280;52593;42.648;23.332;2023-01-10T09:27:30;93519.00;;;3.73;100.00
65832;BME280;52593;42.648;23.332;2023-01-10T09:29:56;93519.63;;;3.92;100.00
65832;BME280;52593;42.648;23.332;2023-01-10T09:32:21;93514.50;;;4.07;100.00
65832;BME280;52593;42.648;23.332;2023-01-10T09:34:47;93513.34;;;4.09;100.00
65832;BME280;52593;42.648;23.332;2023-01-10T09:37:12;93507.22;;;4.09;98.82
65832;BME280;52593;42.648;23.332;2023-01-10T09:39:37;93503.25;;;4.05;99.41
65832;BME280;52593;42.648;23.332;2023-01-10T09:42:04;93494.03;;;3.92;99.12
65832;BME280;52593;42.648;23.332;2023-01-10T09:45:02;93490.25;;;3.62;99.05
65832;BME280;52593;42.648;23.332;2023-01-10T09:47:52;93480.19;;;3.49;99.91
65832;BME280;52593;42.648;23.332;2023-01-10T09:53:24;93484.31;;;3.52;100.00
65832;BME280;52593;42.648;23.332;2023-01-10T09:55:54;93487.13;;;3.59;100.00
65832;BME280;52593;42.648;23.332;2023-01-10T09:58:23;93479.81;;;3.69;100.00
65832;BME280;52593;42.648;23.332;2023-01-10T10:00:56;93481.34;;;3.63;99.93
65832;BME280;52593;42.648;23.332;2023-01-10T10:05:57;93471.09;;;3.44;99.63
65832;BME280;52593;42.648;23.332;2023-01-10T10:08:23;93466.16;;;3.57;100.00
65832;BME280;52593;42.648;23.332;2023-01-10T10:19:49;93471.91;;;3.61;100.00
65832;BME280;52593;42.648;23.332;2023-01-10T10:33:16;93453.25;;;3.46;100.00
65832;BME280;52593;42.648;23.332;2023-01-10T10:35:52;93450.44;;;3.55;100.00
65832;BME280;52593;42.648;23.332;2023-01-10T10:38:27;93447.94;;;3.62;100.00
65832;BME280;52593;42.648;23.332;2023-01-10T10:40:55;93444.31;;;3.55;100.00
65832;BME280;52593;42.648;23.332;2023-01-10T10:43:24;93434.34;;;3.73;100.00
65832;BME280;52593;42.648;23.332;2023-01-10T10:46:06;93433.66;;;3.80;100.00
65832;BME280;52593;42.648;23.332;2023-01-10T10:48:37;93433.53;;;3.73;100.00
65832;BME280;52593;42.648;23.332;2023-01-10T10:53:31;93432.06;;;3.62;100.00
65832;BME280;52593;42.648;23.332;2023-01-10T10:55:58;93435.53;;;3.63;100.00
65832;BME280;52593;42.648;23.332;2023-01-10T10:58:24;93434.88;;;3.61;100.00
65832;BME280;52593;42.648;23.332;2023-01-10T11:00:50;93427.72;;;3.78;100.00
65832;BME280;52593;42.648;23.332;2023-01-10T11:05:47;93434.34;;;3.73;100.00
65832;BME280;52593;42.648;23.332;2023-01-10T11:08:14;93421.63;;;3.69;100.00
65832;BME280;52593;42.648;23.332;2023-01-10T11:10:55;93414.72;;;3.51;100.00
65832;BME280;52593;42.648;23.332;2023-01-10T11:16:00;93406.50;;;3.46;100.00
65832;BME280;52593;42.648;23.332;2023-01-10T11:18:28;93414.09;;;3.49;100.00
65832;BME280;52593;42.648;23.332;2023-01-10T11:26:23;93401.53;;;3.43;100.00
65832;BME280;52593;42.648;23.332;2023-01-10T11:29:16;93399.22;;;3.40;100.00
65832;BME280;52593;42.648;23.332;2023-01-10T11:31:42;93405.34;;;3.32;100.00
65832;BME280;52593;42.648;23.332;2023-01-10T11:34:29;93400.88;;;3.33;100.00
65832;BME280;52593;42.648;23.332;2023-01-10T11:37:02;93411.47;;;3.33;100.00
65832;BME280;52593;42.648;23.332;2023-01-10T11:39:29;93403.88;;;3.30;100.00
65832;BME280;52593;42.648;23.332;2023-01-10T11:41:55;93401.53;;;3.35;100.00
65832;BME280;52593;42.648;23.332;2023-01-10T11:46:54;93404.84;;;3.37;100.00
65832;BME280;52593;42.648;23.332;2023-01-10T11:49:33;93398.56;;;3.38;100.00
65832;BME280;52593;42.648;23.332;2023-01-10T11:52:27;93397.22;;;3.42;100.00
65832;BME280;52593;42.648;23.332;2023-01-10T11:54:55;93400.22;;;3.39;100.00
65832;BME280;52593;42.648;23.332;2023-01-10T11:57:26;93400.88;;;3.33;100.00
65832;BME280;52593;42.648;23.332;2023-01-10T11:59:55;93395.13;;;3.29;100.00
65832;BME280;52593;42.648;23.332;2023-01-10T12:02:32;93389.97;;;3.28;100.00
65832;BME280;52593;42.648;23.332;2023-01-10T12:05:01;93384.03;;;3.26;100.00
65832;BME280;52593;42.648;23.332;2023-01-10T12:07:28;93388.81;;;3.30;100.00
65832;BME280;52593;42.648;23.332;2023-01-10T12:09:57;93397.09;;;3.35;100.00
65832;BME280;52593;42.648;23.332;2023-01-10T12:12:33;93390.66;;;3.30;100.00
65832;BME280;52593;42.648;23.332;2023-01-10T12:17:46;93396.28;;;3.27;100.00
65832;BME280;52593;42.648;23.332;2023-01-10T12:20:14;93397.25;;;3.34;100.00
65832;BME280;52593;42.648;23.332;2023-01-10T12:22:50;93395.22;;;3.44;100.00
65832;BME280;52593;42.648;23.332;2023-01-10T12:25:20;93407.47;;;3.45;100.00
65832;BME280;52593;42.648;23.332;2023-01-10T12:27:46;93398.72;;;3.45;100.00
65832;BME280;52593;42.648;23.332;2023-01-10T12:30:30;93408.13;;;3.47;100.00
65832;BME280;52593;42.648;23.332;2023-01-10T12:32:59;93412.13;;;3.43;100.00
65832;BME280;52593;42.648;23.332;2023-01-10T12:35:38;93401.97;;;3.55;100.00
65832;BME280;52593;42.648;23.332;2023-01-10T12:41:14;93400.34;;;3.46;100.00
65832;BME280;52593;42.648;23.332;2023-01-10T12:44:04;93388.16;;;3.36;100.00
65832;BME280;52593;42.648;23.332;2023-01-10T12:46:49;93385.19;;;3.23;100.00
65832;BME280;52593;42.648;23.332;2023-01-10T12:49:24;93381.22;;;3.27;100.00
65832;BME280;52593;42.648;23.332;2023-01-10T12:51:53;93387.31;;;3.28;100.00
65832;BME280;52593;42.648;23.332;2023-01-10T12:54:24;93396.91;;;3.37;100.00
65832;BME280;52593;42.648;23.332;2023-01-10T12:56:51;93405.66;;;3.37;100.00
65832;BME280;52593;42.648;23.332;2023-01-10T12:59:22;93409.44;;;3.51;100.00
65832;BME280;52593;42.648;23.332;2023-01-10T13:01:55;93400.31;;;3.62;100.00
65832;BME280;52593;42.648;23.332;2023-01-10T13:04:22;93398.50;;;3.71;100.00
65832;BME280;52593;42.648;23.332;2023-01-10T13:06:48;93400.63;;;3.67;100.00
65832;BME280;52593;42.648;23.332;2023-01-10T13:09:22;93399.81;;;3.67;100.00
65832;BME280;52593;42.648;23.332;2023-01-10T13:14:49;93388.59;;;3.65;100.00
65832;BME280;52593;42.648;23.332;2023-01-10T13:17:27;93400.63;;;3.67;100.00
65832;BME280;52593;42.648;23.332;2023-01-10T13:20:36;93405.41;;;3.72;100.00
65832;BME280;52593;42.648;23.332;2023-01-10T13:23:12;93406.75;;;3.68;100.00
65832;BME280;52593;42.648;23.332;2023-01-10T13:25:39;93409.22;;;3.78;100.00
65832;BME280;52593;42.648;23.332;2023-01-10T13:28:07;93411.13;;;3.92;100.00
65832;BME280;52593;42.648;23.332;2023-01-10T13:30:40;93408.66;;;3.90;100.00
65832;BME280;52593;42.648;23.332;2023-01-10T13:33:15;93407.47;;;4.01;100.00
65832;BME280;52593;42.648;23.332;2023-01-10T13:35:43;93404.50;;;4.04;100.00
65832;BME280;52593;42.648;23.332;2023-01-10T13:41:12;93406.13;;;4.05;100.00
65832;BME280;52593;42.648;23.332;2023-01-10T13:44:12;93406.47;;;4.02;100.00
65832;BME280;52593;42.648;23.332;2023-01-10T13:46:44;93418.44;;;3.90;100.00
65832;BME280;52593;42.648;23.332;2023-01-10T13:51:35;93416.72;;;4.05;100.00
65832;BME280;52593;42.648;23.332;2023-01-10T13:54:24;93417.41;;;3.99;100.00
65832;BME280;52593;42.648;23.332;2023-01-10T13:56:50;93412.38;;;4.13;100.00
65832;BME280;52593;42.648;23.332;2023-01-10T14:02:25;93405.31;;;4.05;100.00
65832;BME280;52593;42.648;23.332;2023-01-10T14:04:55;93416.88;;;4.04;100.00
65832;BME280;52593;42.648;23.332;2023-01-10T14:07:43;93418.88;;;4.02;100.00
65832;BME280;52593;42.648;23.332;2023-01-10T14:12:58;93420.44;;;3.88;100.00
65832;BME280;52593;42.648;23.332;2023-01-10T14:15:26;93417.75;;;3.96;100.00
65832;BME280;52593;42.648;23.332;2023-01-10T14:18:00;93415.56;;;4.08;100.00
65832;BME280;52593;42.648;23.332;2023-01-10T14:20:29;93414.41;;;4.02;100.00
65832;BME280;52593;42.648;23.332;2023-01-10T14:23:05;93416.59;;;3.90;100.00
65832;BME280;52593;42.648;23.332;2023-01-10T14:25:34;93425.72;;;3.88;100.00
65832;BME280;52593;42.648;23.332;2023-01-10T14:28:01;93434.50;;;3.80;100.00
65832;BME280;52593;42.648;23.332;2023-01-10T14:30:36;93423.59;;;3.83;100.00
65832;BME280;52593;42.648;23.332;2023-01-10T14:33:18;93418.28;;;3.83;100.00
65832;BME280;52593;42.648;23.332;2023-01-10T14:35:49;93419.91;;;3.92;100.00
65832;BME280;52593;42.648;23.332;2023-01-10T14:38:22;93415.44;;;3.93;100.00
65832;BME280;52593;42.648;23.332;2023-01-10T14:40:50;93416.94;;;3.96;100.00
65832;BME280;52593;42.648;23.332;2023-01-10T14:43:19;93427.22;;;3.82;100.00
65832;BME280;52593;42.648;23.332;2023-01-10T14:45:59;93422.25;;;3.79;100.00
65832;BME280;52593;42.648;23.332;2023-01-10T14:48:34;93428.38;;;3.80;100.00
65832;BME280;52593;42.648;23.332;2023-01-10T14:51:16;93444.13;;;3.65;100.00
65832;BME280;52593;42.648;23.332;2023-01-10T14:53:53;93450.09;;;3.59;100.00